createdAt,value
2023-04-09T00:01:02.585Z,13.25
2023-04-09T00:02:32.584Z,12.59
2023-04-09T00:04:15.604Z,11.98
2023-04-09T00:05:56.832Z,11.38
2023-04-09T00:07:32.842Z,10.87
2023-04-09T00:09:13.422Z,10.74
2023-04-09T00:10:37.643Z,11.53
2023-04-09T00:12:06.406Z,12.63
2023-04-09T00:13:39.056Z,13.56
2023-04-09T00:15:20.658Z,13.69
2023-04-09T00:17:01.873Z,12.95
2023-04-09T00:18:31.064Z,12.29
2023-04-09T00:19:55.225Z,11.76
2023-04-09T00:21:21.148Z,11.27
2023-04-09T00:23:15.793Z,10.82
2023-04-09T00:25:01.153Z,10.88
2023-04-09T00:26:34.561Z,11.99
2023-04-09T00:28:07.693Z,12.97
2023-04-09T00:29:37.113Z,13.76
2023-04-09T00:31:08.410Z,13.58
2023-04-09T00:32:38.007Z,13.02
2023-04-09T00:34:13.493Z,12.34
2023-04-09T00:35:54.733Z,11.68
2023-04-09T00:37:28.583Z,11.21
2023-04-09T00:39:09.448Z,10.86
2023-04-09T00:40:35.724Z,11.43
2023-04-09T00:42:15.316Z,12.45
2023-04-09T00:43:56.411Z,13.61
2023-04-09T00:45:32.443Z,13.76
2023-04-09T00:46:56.500Z,13.22
2023-04-09T00:48:18.042Z,12.62
2023-04-09T00:49:51.319Z,12.07
2023-04-09T00:51:23.302Z,11.53
2023-04-09T00:53:00.112Z,11.10
2023-04-09T00:54:45.057Z,11.04
2023-04-09T00:56:30.236Z,12.06
2023-04-09T00:58:06.745Z,13.29
2023-04-09T00:59:28.597Z,13.86
2023-04-09T01:00:59.925Z,13.62
2023-04-09T01:02:33.594Z,13.04
2023-04-09T01:04:24.183Z,12.32
2023-04-09T01:05:57.921Z,11.74
2023-04-09T01:07:31.485Z,11.25
2023-04-09T01:09:16.613Z,11.00
2023-04-09T01:10:52.080Z,11.76
2023-04-09T01:12:25.632Z,12.90
2023-04-09T01:13:47.514Z,13.75
2023-04-09T01:15:20.804Z,13.93
2023-04-09T01:16:50.026Z,13.36
2023-04-09T01:18:16.573Z,12.76
2023-04-09T01:19:50.026Z,12.22
2023-04-09T01:21:11.501Z,11.71
2023-04-09T01:22:47.305Z,11.28
2023-04-09T01:24:32.805Z,11.00
2023-04-09T01:26:04.116Z,11.66
2023-04-09T01:27:45.582Z,12.75
2023-04-09T01:29:07.695Z,13.74
2023-04-09T01:30:52.712Z,13.83
2023-04-09T01:32:33.418Z,13.21
2023-04-09T01:33:55.094Z,12.53
2023-04-09T01:35:40.110Z,11.94
2023-04-09T01:37:15.516Z,11.39
2023-04-09T01:39:02.780Z,10.98
2023-04-09T01:40:38.645Z,11.15
2023-04-09T01:42:12.279Z,12.16
2023-04-09T01:43:45.832Z,13.38
2023-04-09T01:45:19.311Z,13.89
2023-04-09T01:47:13.825Z,13.48
2023-04-09T01:48:54.776Z,12.69
2023-04-09T01:50:40.073Z,11.99
2023-04-09T01:52:25.060Z,11.40
2023-04-09T01:54:10.427Z,10.91
2023-04-09T01:55:55.515Z,10.92
2023-04-09T01:57:49.812Z,11.99
2023-04-09T01:59:34.788Z,13.29
2023-04-09T02:01:27.589Z,13.79
2023-04-09T02:03:21.915Z,13.16
2023-04-09T02:05:16.809Z,12.30
2023-04-09T02:07:01.993Z,11.56
2023-04-09T02:08:47.300Z,11.03
2023-04-09T02:10:12.000Z,11.05
2023-04-09T02:11:56.996Z,11.99
2023-04-09T02:13:38.707Z,13.19
2023-04-09T02:15:11.880Z,13.90
2023-04-09T02:16:52.966Z,13.54
2023-04-09T02:18:38.983Z,12.79
2023-04-09T02:20:32.205Z,12.05
2023-04-09T02:22:08.737Z,11.46
2023-04-09T02:23:49.998Z,11.01
2023-04-09T02:25:35.139Z,11.43
2023-04-09T02:27:10.579Z,12.63
2023-04-09T02:28:39.873Z,13.54
2023-04-09T02:30:15.792Z,13.95
2023-04-09T02:32:09.040Z,13.41
2023-04-09T02:33:55.519Z,12.56
2023-04-09T02:35:19.895Z,11.91
2023-04-09T02:36:43.726Z,11.47
2023-04-09T02:38:18.830Z,11.09
2023-04-09T02:39:55.053Z,11.50
2023-04-09T02:41:18.974Z,12.43
2023-04-09T02:42:59.490Z,13.44
2023-04-09T02:44:44.780Z,14.05
2023-04-09T02:46:29.939Z,13.53
2023-04-09T02:48:05.763Z,12.70
2023-04-09T02:49:30.116Z,12.05
2023-04-09T02:51:06.465Z,11.49
2023-04-09T02:52:28.667Z,11.07
2023-04-09T02:54:19.008Z,11.48
2023-04-09T02:56:08.196Z,12.72
2023-04-09T02:57:53.712Z,13.84
2023-04-09T02:59:47.143Z,14.03
2023-04-09T03:01:32.216Z,13.26
2023-04-09T03:03:22.082Z,12.43
2023-04-09T03:04:53.834Z,11.73
2023-04-09T03:06:23.146Z,11.23
2023-04-09T03:07:56.601Z,11.40
2023-04-09T03:09:42.158Z,12.33
2023-04-09T03:11:15.861Z,13.44
2023-04-09T03:12:47.790Z,14.07
2023-04-09T03:14:30.929Z,13.89
2023-04-09T03:18:32.591Z,12.03
2023-04-09T03:20:06.146Z,11.34
2023-04-09T03:21:49.193Z,11.40
2023-04-09T03:23:34.331Z,12.41
2023-04-09T03:25:27.985Z,13.54
2023-04-09T03:27:02.437Z,14.18
2023-04-09T03:28:25.266Z,13.77
2023-04-09T03:30:12.531Z,13.02
2023-04-09T03:31:50.043Z,12.26
2023-04-09T03:33:26.231Z,11.64
2023-04-09T03:34:58.008Z,11.21
2023-04-09T03:36:31.663Z,11.61
2023-04-09T03:38:35.865Z,12.83
2023-04-09T03:40:25.656Z,14.00
2023-04-09T03:42:04.608Z,14.10
2023-04-09T03:43:46.787Z,13.35
2023-04-09T03:45:20.883Z,12.52
2023-04-09T03:47:07.345Z,11.87
2023-04-09T03:49:01.274Z,11.33
2023-04-09T03:51:00.933Z,11.96
2023-04-09T03:53:00.718Z,13.31
2023-04-09T03:54:46.040Z,14.15
2023-04-09T03:56:34.445Z,13.68
2023-04-09T03:58:27.793Z,12.82
2023-04-09T04:00:01.488Z,11.96
2023-04-09T04:01:49.209Z,11.37
2023-04-09T04:03:22.974Z,11.10
2023-04-09T04:05:22.949Z,11.99
2023-04-09T04:07:08.140Z,13.17
2023-04-09T04:08:51.814Z,14.02
2023-04-09T04:10:32.925Z,13.71
2023-04-09T04:12:08.082Z,12.99
2023-04-09T04:14:09.249Z,12.06
2023-04-09T04:15:44.791Z,11.30
2023-04-09T04:17:19.373Z,11.17
2023-04-09T04:18:55.083Z,12.04
2023-04-09T04:20:21.593Z,12.98
2023-04-09T04:22:26.267Z,13.94
2023-04-09T04:24:13.118Z,13.93
2023-04-09T04:25:57.967Z,13.11
2023-04-09T04:27:35.987Z,12.32
2023-04-09T04:29:29.525Z,11.60
2023-04-09T04:31:14.116Z,11.38
2023-04-09T04:32:38.811Z,12.25
2023-04-09T04:34:15.154Z,13.20
2023-04-09T04:36:09.875Z,14.12
2023-04-09T04:37:46.862Z,13.98
2023-04-09T04:39:22.867Z,13.17
2023-04-09T04:41:23.145Z,12.34
2023-04-09T04:43:12.509Z,11.56
2023-04-09T04:45:06.706Z,11.32
2023-04-09T04:47:10.116Z,12.42
2023-04-09T04:48:55.206Z,13.63
2023-04-09T04:50:41.358Z,14.27
2023-04-09T04:52:26.857Z,13.75
2023-04-09T04:54:03.515Z,12.92
2023-04-09T04:55:39.811Z,12.23
2023-04-09T04:57:11.591Z,11.66
2023-04-09T04:58:47.298Z,11.42
2023-04-09T05:00:23.153Z,12.08
2023-04-09T05:02:06.461Z,13.20
2023-04-09T05:03:56.881Z,14.22
2023-04-09T05:05:37.412Z,14.18
2023-04-09T05:07:13.272Z,13.39
2023-04-09T05:09:08.988Z,12.59
2023-04-09T05:10:59.931Z,11.83
2023-04-09T05:12:41.458Z,11.55
2023-04-09T05:14:18.494Z,12.28
2023-04-09T05:15:41.218Z,13.35
2023-04-09T05:17:34.439Z,14.21
2023-04-09T05:19:15.280Z,14.12
2023-04-09T05:20:50.835Z,13.44
2023-04-09T05:22:36.139Z,12.61
2023-04-09T05:23:58.414Z,12.01
2023-04-09T05:25:43.639Z,11.56
2023-04-09T05:27:28.533Z,12.05
2023-04-09T05:29:25.573Z,13.27
2023-04-09T05:31:11.779Z,14.39
2023-04-09T05:33:09.391Z,14.31
2023-04-09T05:34:56.741Z,13.49
2023-04-09T05:36:43.986Z,12.68
2023-04-09T05:38:17.186Z,12.04
2023-04-09T05:39:50.939Z,11.65
2023-04-09T05:41:36.349Z,12.15
2023-04-09T05:43:29.948Z,13.41
2023-04-09T05:45:14.821Z,14.42
2023-04-09T05:47:00.463Z,14.43
2023-04-09T05:48:52.958Z,13.64
2023-04-09T05:50:29.577Z,12.85
2023-04-09T05:52:04.602Z,12.33
2023-04-09T05:53:41.843Z,11.82
2023-04-09T05:55:18.077Z,11.93
2023-04-09T05:56:57.287Z,12.91
2023-04-09T05:58:24.665Z,13.82
2023-04-09T06:00:09.831Z,14.63
2023-04-09T06:01:53.080Z,14.40
2023-04-09T06:03:38.666Z,13.57
2023-04-09T06:05:13.884Z,12.78
2023-04-09T06:06:36.044Z,12.23
2023-04-09T06:08:20.827Z,11.70
2023-04-09T06:09:54.628Z,11.90
2023-04-09T06:11:27.853Z,12.71
2023-04-09T06:13:16.087Z,13.83
2023-04-09T06:15:00.876Z,14.65
2023-04-09T06:16:37.576Z,14.34
2023-04-09T06:18:11.065Z,13.53
2023-04-09T06:19:44.518Z,12.89
2023-04-09T06:21:06.452Z,12.28
2023-04-09T06:22:39.795Z,11.99
2023-04-09T06:24:19.365Z,12.56
2023-04-09T06:25:52.773Z,13.67
2023-04-09T06:27:34.899Z,14.66
2023-04-09T06:29:08.582Z,14.90
2023-04-09T06:31:00.259Z,14.29
2023-04-09T06:32:53.648Z,13.42
2023-04-09T06:34:30.276Z,12.69
2023-04-09T06:36:01.661Z,12.41
2023-04-09T06:37:25.906Z,12.98
2023-04-09T06:38:59.585Z,13.97
2023-04-09T06:40:44.553Z,15.18
2023-04-09T06:42:17.986Z,15.70
2023-04-09T06:44:15.225Z,15.17
2023-04-09T06:45:51.111Z,14.42
2023-04-09T06:47:12.763Z,13.83
2023-04-09T06:48:48.094Z,13.29
2023-04-09T06:50:23.288Z,12.84
2023-04-09T06:51:59.273Z,12.52
2023-04-09T06:53:44.598Z,13.05
2023-04-09T06:55:21.616Z,14.11
2023-04-09T06:56:57.693Z,15.15
2023-04-09T06:58:42.940Z,15.09
2023-04-09T07:00:16.506Z,14.47
2023-04-09T07:01:57.729Z,13.77
2023-04-09T07:03:39.025Z,13.10
2023-04-09T07:05:24.581Z,12.59
2023-04-09T07:07:00.292Z,12.49
2023-04-09T07:08:34.624Z,13.34
2023-04-09T07:10:10.241Z,14.59
2023-04-09T07:11:39.400Z,15.41
2023-04-09T07:13:15.491Z,15.36
2023-04-09T07:14:48.933Z,14.75
2023-04-09T07:16:26.111Z,14.11
2023-04-09T07:18:08.826Z,13.55
2023-04-09T07:19:54.404Z,13.06
2023-04-09T07:21:30.223Z,12.78
2023-04-09T07:23:18.944Z,13.44
2023-04-09T07:25:04.028Z,14.83
2023-04-09T07:26:40.048Z,15.46
2023-04-09T07:28:11.441Z,15.14
2023-04-09T07:30:05.355Z,14.54
2023-04-09T07:31:51.076Z,13.93
2023-04-09T07:33:27.258Z,13.53
2023-04-09T07:35:20.766Z,13.20
2023-04-09T07:37:08.170Z,13.50
2023-04-09T07:38:53.425Z,14.79
2023-04-09T07:40:29.869Z,15.94
2023-04-09T07:42:15.966Z,16.16
2023-04-09T07:43:57.214Z,15.65
2023-04-09T07:45:32.746Z,15.08
2023-04-09T07:47:22.367Z,14.56
2023-04-09T07:49:08.963Z,14.12
2023-04-09T07:50:45.202Z,13.78
2023-04-09T07:52:30.049Z,13.51
2023-04-09T07:54:15.316Z,13.29
2023-04-09T07:55:51.482Z,13.71
2023-04-09T07:57:17.763Z,14.87
2023-04-09T07:58:54.708Z,15.91
2023-04-09T08:00:24.355Z,16.36
2023-04-09T08:01:56.594Z,16.01
2023-04-09T08:03:41.824Z,15.50
2023-04-09T08:05:13.583Z,15.02
2023-04-09T08:07:06.734Z,14.70
2023-04-09T08:08:40.699Z,14.40
2023-04-09T08:10:13.893Z,14.20
2023-04-09T08:11:45.562Z,13.98
2023-04-09T08:13:12.128Z,13.83
2023-04-09T08:14:45.621Z,13.71
2023-04-09T08:16:30.953Z,13.59
2023-04-09T08:18:19.399Z,13.48
2023-04-09T08:19:50.992Z,13.38
2023-04-09T08:21:33.461Z,13.40
2023-04-09T08:23:09.358Z,14.37
2023-04-09T08:24:36.100Z,15.66
2023-04-09T08:26:11.871Z,16.34
2023-04-09T08:27:57.452Z,16.11
2023-04-09T08:29:18.886Z,15.64
2023-04-09T08:30:54.730Z,15.23
2023-04-09T08:32:40.125Z,14.81
2023-04-09T08:34:29.302Z,14.52
2023-04-09T08:36:16.302Z,14.32
2023-04-09T08:37:40.451Z,14.20
2023-04-09T08:39:25.495Z,14.09
2023-04-09T08:40:59.011Z,13.97
2023-04-09T08:42:32.553Z,13.89
2023-04-09T08:43:58.958Z,13.81
2023-04-09T08:45:24.147Z,13.74
2023-04-09T08:47:17.437Z,13.68
2023-04-09T08:48:53.121Z,13.61
2023-04-09T08:50:28.855Z,13.59
2023-04-09T08:52:09.521Z,13.59
2023-04-09T08:53:50.645Z,13.59
2023-04-09T08:55:35.494Z,13.58
2023-04-09T08:57:04.595Z,13.58
2023-04-09T08:58:38.215Z,13.58
2023-04-09T09:00:18.092Z,13.60
2023-04-09T09:01:42.292Z,13.64
2023-04-09T09:03:15.993Z,13.68
2023-04-09T09:05:02.324Z,13.71
2023-04-09T09:06:32.608Z,13.77
2023-04-09T09:08:06.292Z,14.32
2023-04-09T09:09:43.310Z,15.74
2023-04-09T09:11:14.666Z,16.76
2023-04-09T09:12:47.573Z,16.80
2023-04-09T09:14:21.219Z,16.56
2023-04-09T09:15:50.426Z,16.26
2023-04-09T09:17:35.797Z,16.01
2023-04-09T09:19:07.229Z,15.82
2023-04-09T09:20:54.421Z,15.66
2023-04-09T09:22:30.550Z,15.55
2023-04-09T09:24:04.076Z,15.47
2023-04-09T09:25:49.382Z,15.42
2023-04-09T09:27:34.336Z,15.38
2023-04-09T09:28:58.715Z,15.36
2023-04-09T09:30:44.129Z,15.34
2023-04-09T09:32:19.745Z,15.29
2023-04-09T09:34:05.766Z,15.22
2023-04-09T09:35:51.097Z,15.15
2023-04-09T09:37:36.179Z,15.14
2023-04-09T09:39:18.855Z,15.12
2023-04-09T09:41:12.186Z,15.16
2023-04-09T09:42:34.144Z,15.25
2023-04-09T09:44:07.134Z,15.34
2023-04-09T09:45:52.286Z,15.47
2023-04-09T09:47:38.148Z,15.62
2023-04-09T09:49:11.654Z,15.77
2023-04-09T09:50:57.034Z,15.90
2023-04-09T09:52:30.400Z,16.02
2023-04-09T09:54:04.035Z,16.14
2023-04-09T09:55:37.860Z,16.27
2023-04-09T09:57:23.307Z,16.37
2023-04-09T09:59:08.310Z,16.47
2023-04-09T10:00:53.206Z,16.57
2023-04-09T10:02:17.425Z,16.65
2023-04-09T10:03:51.642Z,16.70
2023-04-09T10:05:36.643Z,16.76
2023-04-09T10:07:10.581Z,16.77
2023-04-09T10:08:45.022Z,16.74
2023-04-09T10:10:18.487Z,16.67
2023-04-09T10:12:00.611Z,16.60
2023-04-09T10:13:34.644Z,16.49
2023-04-09T10:14:56.494Z,16.37
2023-04-09T10:16:41.785Z,16.25
2023-04-09T10:18:15.775Z,16.13
2023-04-09T10:19:56.675Z,15.97
2023-04-09T10:21:28.603Z,15.80
2023-04-09T10:23:17.835Z,15.61
2023-04-09T10:24:58.782Z,15.36
2023-04-09T10:26:32.789Z,15.17
2023-04-09T10:28:06.381Z,14.98
2023-04-09T10:29:42.112Z,14.79
2023-04-09T10:31:27.503Z,14.59
2023-04-09T10:33:21.209Z,14.40
2023-04-09T10:34:57.134Z,14.25
2023-04-09T10:36:33.245Z,14.14
2023-04-09T10:38:18.409Z,14.02
2023-04-09T10:39:54.466Z,13.93
2023-04-09T10:41:35.172Z,13.86
2023-04-09T10:43:16.245Z,13.80
2023-04-09T10:44:41.359Z,13.76
2023-04-09T10:46:26.703Z,13.72
2023-04-09T10:47:52.278Z,13.68
2023-04-09T10:49:23.465Z,13.63
2023-04-09T10:51:17.971Z,13.57
2023-04-09T10:52:51.663Z,13.50
2023-04-09T10:54:25.191Z,13.45
2023-04-09T10:56:19.882Z,13.37
2023-04-09T10:58:05.178Z,13.24
2023-04-09T10:59:41.085Z,13.14
2023-04-09T11:01:21.932Z,13.14
2023-04-09T11:02:55.339Z,14.02
2023-04-09T11:04:17.127Z,15.17
2023-04-09T11:06:02.015Z,16.02
2023-04-09T11:07:56.873Z,15.89
2023-04-09T11:09:38.173Z,15.39
2023-04-09T11:11:23.041Z,14.99
2023-04-09T11:13:17.889Z,14.67
2023-04-09T11:14:53.351Z,14.42
2023-04-09T11:16:29.026Z,14.28
2023-04-09T11:18:13.928Z,14.16
2023-04-09T11:19:37.859Z,14.06
2023-04-09T11:21:22.898Z,13.99
2023-04-09T11:22:58.789Z,13.92
2023-04-09T11:24:40.437Z,13.86
2023-04-09T11:26:13.556Z,13.80
2023-04-09T11:27:59.216Z,13.72
2023-04-09T11:29:34.728Z,13.65
2023-04-09T11:31:10.279Z,13.60
2023-04-09T11:32:46.379Z,13.54
2023-04-09T11:34:21.715Z,13.66
2023-04-09T11:35:56.910Z,14.78
2023-04-09T11:37:32.687Z,15.91
2023-04-09T11:39:04.064Z,16.28
2023-04-09T11:40:49.813Z,16.02
2023-04-09T11:42:35.255Z,15.64
2023-04-09T11:44:16.428Z,15.34
2023-04-09T11:45:50.029Z,15.08
2023-04-09T11:47:23.799Z,14.93
2023-04-09T11:49:00.007Z,14.74
2023-04-09T11:50:36.011Z,14.58
2023-04-09T11:52:11.541Z,14.44
2023-04-09T11:53:52.639Z,14.31
2023-04-09T11:55:26.379Z,14.20
2023-04-09T11:57:00.482Z,14.08
2023-04-09T11:58:29.602Z,13.96
2023-04-09T12:00:01.631Z,13.82
2023-04-09T12:01:39.223Z,13.72
2023-04-09T12:03:03.653Z,13.62
2023-04-09T12:04:35.441Z,13.56
2023-04-09T12:06:23.694Z,13.50
2023-04-09T12:07:57.235Z,13.47
2023-04-09T12:09:31.326Z,13.94
2023-04-09T12:11:25.091Z,15.19
2023-04-09T12:13:14.883Z,16.60
2023-04-09T12:14:57.120Z,16.80
2023-04-09T12:16:36.014Z,16.41
2023-04-09T12:18:00.264Z,16.05
2023-04-09T12:19:29.705Z,15.76
2023-04-09T12:21:01.059Z,15.53
2023-04-09T12:22:36.173Z,15.34
2023-04-09T12:24:29.294Z,15.16
2023-04-09T12:26:01.473Z,14.97
2023-04-09T12:27:44.371Z,14.84
2023-04-09T12:29:17.910Z,14.71
2023-04-09T12:31:02.739Z,14.58
2023-04-09T12:32:36.502Z,14.42
2023-04-09T12:34:00.672Z,14.29
2023-04-09T12:35:38.021Z,14.14
2023-04-09T12:37:24.229Z,13.98
2023-04-09T12:39:17.892Z,13.83
2023-04-09T12:40:53.222Z,13.68
2023-04-09T12:42:27.094Z,13.56
2023-04-09T12:44:09.026Z,13.46
2023-04-09T12:45:54.463Z,13.35
2023-04-09T12:47:35.701Z,13.30
2023-04-09T12:48:59.812Z,13.97
2023-04-09T12:50:33.613Z,15.07
2023-04-09T12:52:18.515Z,16.39
2023-04-09T12:53:54.017Z,16.66
2023-04-09T12:55:41.546Z,16.23
2023-04-09T12:57:27.355Z,15.67
2023-04-09T12:59:20.819Z,15.20
2023-04-09T13:01:14.265Z,14.80
2023-04-09T13:03:09.016Z,14.50
2023-04-09T13:04:35.741Z,14.29
2023-04-09T13:06:07.347Z,14.13
2023-04-09T13:07:31.380Z,13.98
2023-04-09T13:09:25.899Z,13.84
2023-04-09T13:10:49.973Z,13.70
2023-04-09T13:12:32.888Z,13.61
2023-04-09T13:14:22.882Z,13.48
2023-04-09T13:15:49.276Z,13.41
2023-04-09T13:17:34.406Z,14.08
2023-04-09T13:19:10.209Z,15.40
2023-04-09T13:20:46.179Z,16.50
2023-04-09T13:22:27.069Z,16.59
2023-04-09T13:24:03.361Z,16.24
2023-04-09T13:25:44.388Z,15.81
2023-04-09T13:27:17.833Z,15.45
2023-04-09T13:29:07.774Z,15.21
2023-04-09T13:30:32.129Z,15.00
2023-04-09T13:31:56.192Z,14.85
2023-04-09T13:33:41.362Z,14.72
2023-04-09T13:35:26.592Z,14.60
2023-04-09T13:37:20.169Z,14.48
2023-04-09T13:38:59.158Z,14.35
2023-04-09T13:40:39.952Z,14.22
2023-04-09T13:42:33.894Z,14.12
2023-04-09T13:43:55.516Z,14.03
2023-04-09T13:45:31.177Z,13.97
2023-04-09T13:47:04.887Z,13.93
2023-04-09T13:48:34.083Z,13.92
2023-04-09T13:50:19.228Z,13.91
2023-04-09T13:51:52.828Z,13.93
2023-04-09T13:53:38.380Z,13.99
2023-04-09T13:55:09.581Z,14.12
2023-04-09T13:57:03.995Z,14.27
2023-04-09T13:58:51.502Z,14.45
2023-04-09T14:00:25.738Z,14.61
2023-04-09T14:04:21.904Z,15.07
2023-04-09T14:05:55.819Z,15.38
2023-04-09T14:07:29.226Z,15.65
2023-04-09T14:09:16.074Z,15.90
2023-04-09T14:10:37.963Z,16.08
2023-04-09T14:12:22.960Z,16.19
2023-04-09T14:14:05.916Z,16.26
2023-04-09T14:15:41.769Z,16.29
2023-04-09T14:17:18.227Z,16.20
2023-04-09T14:18:49.470Z,16.11
2023-04-09T14:20:27.136Z,16.03
2023-04-09T14:22:00.854Z,15.92
2023-04-09T14:23:34.977Z,15.84
2023-04-09T14:25:08.275Z,15.74
2023-04-09T14:27:02.881Z,15.63
2023-04-09T14:28:48.310Z,15.50
2023-04-09T14:30:21.935Z,15.40
2023-04-09T14:31:51.790Z,15.28
2023-04-09T14:33:37.208Z,15.20
2023-04-09T14:35:22.015Z,15.10
2023-04-09T14:37:04.906Z,15.02
2023-04-09T14:38:38.854Z,14.94
2023-04-09T14:40:00.729Z,14.89
2023-04-09T14:41:45.923Z,14.84
2023-04-09T14:43:19.202Z,14.80
2023-04-09T14:44:52.846Z,14.76
2023-04-09T14:46:26.253Z,14.74
2023-04-09T14:47:59.463Z,14.71
2023-04-09T14:49:29.044Z,14.66
2023-04-09T14:51:00.497Z,14.61
2023-04-09T14:52:34.010Z,14.57
2023-04-09T14:53:55.770Z,14.51
2023-04-09T14:55:41.374Z,14.47
2023-04-09T14:57:26.266Z,14.42
2023-04-09T14:58:59.965Z,14.36
2023-04-09T15:00:45.702Z,14.32
2023-04-09T15:02:26.492Z,14.28
2023-04-09T15:04:11.553Z,14.24
2023-04-09T15:06:05.908Z,14.20
2023-04-09T15:07:39.642Z,14.17
2023-04-09T15:09:15.344Z,14.15
2023-04-09T15:10:50.865Z,14.12
2023-04-09T15:12:26.553Z,14.11
2023-04-09T15:14:07.190Z,14.09
2023-04-09T15:15:48.327Z,14.07
2023-04-09T15:17:32.803Z,14.03
2023-04-09T15:19:06.971Z,14.01
2023-04-09T15:21:00.962Z,13.99
2023-04-09T15:22:34.543Z,13.95
2023-04-09T15:23:58.878Z,13.91
2023-04-09T15:25:32.966Z,13.86
2023-04-09T15:27:18.085Z,13.82
2023-04-09T15:28:53.771Z,13.78
2023-04-09T15:30:23.304Z,13.74
2023-04-09T15:31:59.636Z,13.69
2023-04-09T15:33:33.995Z,13.67
2023-04-09T15:35:00.139Z,14.34
2023-04-09T15:36:45.390Z,15.61
2023-04-09T15:38:11.846Z,16.68
2023-04-09T15:39:47.840Z,16.76
2023-04-09T15:41:28.734Z,16.34
2023-04-09T15:42:55.060Z,15.83
2023-04-09T15:44:28.832Z,15.37
2023-04-09T15:46:02.046Z,15.01
2023-04-09T15:47:44.117Z,14.73
2023-04-09T15:49:34.012Z,14.47
2023-04-09T15:51:13.200Z,14.25
2023-04-09T15:52:58.422Z,14.04
2023-04-09T15:54:43.722Z,13.87
2023-04-09T15:56:17.180Z,14.56
2023-04-09T15:57:41.214Z,15.61
2023-04-09T15:59:26.156Z,16.65
2023-04-09T16:00:51.344Z,16.83
2023-04-09T16:02:27.893Z,16.41
2023-04-09T16:04:21.184Z,15.83
2023-04-09T16:06:10.925Z,15.25
2023-04-09T16:07:59.065Z,14.82
2023-04-09T16:09:24.019Z,14.51
2023-04-09T16:10:59.362Z,14.27
2023-04-09T16:12:28.719Z,14.05
2023-04-09T16:14:01.774Z,14.08
2023-04-09T16:15:35.549Z,15.10
2023-04-09T16:17:20.729Z,16.28
2023-04-09T16:18:45.205Z,16.97
2023-04-09T16:20:26.134Z,16.72
2023-04-09T16:22:11.029Z,16.14
2023-04-09T16:23:44.471Z,15.55
2023-04-09T16:25:29.722Z,15.10
2023-04-09T16:27:14.401Z,14.69
2023-04-09T16:29:04.940Z,14.35
2023-04-09T16:30:27.177Z,14.09
2023-04-09T16:31:57.515Z,13.88
2023-04-09T16:33:40.565Z,13.81
2023-04-09T16:35:14.011Z,14.72
2023-04-09T16:36:50.601Z,15.78
2023-04-09T16:38:27.614Z,16.78
2023-04-09T16:39:51.708Z,16.68
2023-04-09T16:41:37.203Z,16.14
2023-04-09T16:43:01.273Z,15.53
2023-04-09T16:44:42.306Z,15.02
2023-04-09T16:46:11.255Z,14.55
2023-04-09T16:48:01.344Z,14.20
2023-04-09T16:49:46.989Z,13.94
2023-04-09T16:51:10.495Z,14.59
2023-04-09T16:52:44.552Z,15.73
2023-04-09T16:54:08.548Z,16.64
2023-04-09T16:56:00.232Z,16.86
2023-04-09T16:57:36.106Z,16.32
2023-04-09T16:59:21.365Z,15.64
2023-04-09T17:01:01.895Z,15.06
2023-04-09T17:02:47.223Z,14.57
2023-04-09T17:04:09.501Z,14.19
2023-04-09T17:05:54.258Z,14.17
2023-04-09T17:07:29.648Z,15.05
2023-04-09T17:09:05.239Z,16.13
2023-04-09T17:10:35.267Z,16.91
2023-04-09T17:12:16.083Z,16.70
2023-04-09T17:13:49.253Z,15.99
2023-04-09T17:15:24.992Z,15.35
2023-04-09T17:17:08.027Z,14.85
2023-04-09T17:18:45.530Z,14.27
2023-04-09T17:20:31.206Z,14.06
2023-04-09T17:22:11.574Z,14.78
2023-04-09T17:23:42.899Z,15.93
2023-04-09T17:25:05.038Z,16.78
2023-04-09T17:26:38.990Z,16.87
2023-04-09T17:28:05.022Z,16.31
2023-04-09T17:29:38.306Z,15.61
2023-04-09T17:31:13.726Z,15.00
2023-04-09T17:32:47.624Z,14.55
2023-04-09T17:34:28.996Z,14.09
2023-04-09T17:35:51.169Z,14.22
2023-04-09T17:37:13.174Z,15.00
2023-04-09T17:39:01.950Z,16.07
2023-04-09T17:40:48.952Z,16.76
2023-04-09T17:42:14.581Z,16.39
2023-04-09T17:43:48.526Z,15.80
2023-04-09T17:45:22.216Z,15.10
2023-04-09T17:46:46.468Z,14.61
2023-04-09T17:48:18.128Z,14.16
2023-04-09T17:50:07.752Z,13.78
2023-04-09T17:51:41.285Z,14.19
2023-04-09T17:53:22.952Z,15.29
2023-04-09T17:55:02.192Z,16.28
2023-04-09T17:56:38.760Z,16.37
2023-04-09T17:58:15.269Z,15.69
2023-04-09T17:59:41.866Z,15.04
2023-04-09T18:01:15.577Z,14.39
2023-04-09T18:02:49.684Z,13.83
2023-04-09T18:04:29.235Z,13.67
2023-04-09T18:06:01.020Z,14.51
2023-04-09T18:07:37.158Z,15.42
2023-04-09T18:09:00.832Z,16.26
2023-04-09T18:10:37.372Z,16.33
2023-04-09T18:12:01.312Z,15.71
2023-04-09T18:13:35.518Z,14.91
2023-04-09T18:15:09.533Z,14.22
2023-04-09T18:16:43.862Z,13.71
2023-04-09T18:18:29.670Z,13.79
2023-04-09T18:20:15.141Z,14.82
2023-04-09T18:21:51.405Z,15.86
2023-04-09T18:23:27.838Z,16.49
2023-04-09T18:25:03.790Z,16.28
2023-04-09T18:26:37.700Z,15.55
2023-04-09T18:28:01.919Z,14.89
2023-04-09T18:29:36.243Z,14.30
2023-04-09T18:31:10.104Z,13.82
2023-04-09T18:33:03.522Z,14.36
2023-04-09T18:34:48.400Z,15.48
2023-04-09T18:36:21.891Z,16.38
2023-04-09T18:37:44.215Z,16.76
2023-04-09T18:39:25.747Z,16.34
2023-04-09T18:41:06.722Z,15.51
2023-04-09T18:42:28.705Z,14.80
2023-04-09T18:44:09.096Z,14.22
2023-04-09T18:45:36.686Z,14.46
2023-04-09T18:47:11.299Z,15.25
2023-04-09T18:48:46.993Z,16.25
2023-04-09T18:50:19.055Z,16.88
2023-04-09T18:51:52.945Z,16.86
2023-04-09T18:53:26.842Z,16.13
2023-04-09T18:55:11.863Z,15.32
2023-04-09T18:56:38.514Z,14.58
2023-04-09T18:58:17.555Z,14.29
2023-04-09T18:59:51.633Z,14.97
2023-04-09T19:01:37.321Z,15.87
2023-04-09T19:03:24.061Z,16.72
2023-04-09T19:04:58.571Z,16.98
2023-04-09T19:06:36.154Z,16.33
2023-04-09T19:08:07.478Z,15.50
2023-04-09T19:09:43.422Z,14.80
2023-04-09T19:11:17.245Z,14.21
2023-04-09T19:12:59.108Z,14.46
2023-04-09T19:14:45.493Z,15.49
2023-04-09T19:16:19.117Z,16.42
2023-04-09T19:18:04.615Z,16.96
2023-04-09T19:19:34.005Z,16.67
2023-04-09T19:21:09.702Z,15.91
2023-04-09T19:22:55.548Z,14.99
2023-04-09T19:24:25.578Z,14.27
2023-04-09T19:25:55.058Z,14.35
2023-04-09T19:27:28.551Z,15.06
2023-04-09T19:29:13.163Z,16.00
2023-04-09T19:30:58.256Z,16.76
2023-04-09T19:32:39.440Z,16.83
2023-04-09T19:34:20.543Z,16.06
2023-04-09T19:35:42.279Z,15.26
2023-04-09T19:37:27.176Z,14.51
2023-04-09T19:39:12.611Z,14.17
2023-04-09T19:40:46.667Z,14.93
2023-04-09T19:45:57.086Z,16.81
2023-04-09T19:47:28.992Z,16.18
2023-04-09T19:49:02.392Z,15.42
2023-04-09T19:50:24.671Z,14.62
2023-04-09T19:52:09.510Z,14.30
2023-04-09T19:53:33.557Z,14.92
2023-04-09T19:55:06.546Z,15.78
2023-04-09T19:56:48.056Z,16.54
2023-04-09T19:58:33.764Z,16.89
2023-04-09T19:59:58.634Z,16.34
2023-04-09T20:01:35.007Z,15.50
2023-04-09T20:02:59.085Z,14.79
2023-04-09T20:04:21.258Z,14.31
2023-04-09T20:06:06.255Z,14.65
2023-04-09T20:07:53.369Z,15.61
2023-04-09T20:09:17.176Z,16.40
2023-04-09T20:10:47.267Z,16.88
2023-04-09T20:12:28.327Z,16.51
2023-04-09T20:14:13.693Z,15.64
2023-04-09T20:16:02.301Z,14.74
2023-04-09T20:17:47.874Z,14.24
2023-04-09T21:42:06.439Z,16.38
2023-04-09T21:43:31.121Z,16.28
2023-04-09T21:44:52.776Z,15.68
2023-04-09T21:46:26.645Z,14.91
2023-04-09T21:48:00.199Z,14.26
2023-04-09T21:49:46.392Z,14.43
2023-04-09T21:51:27.619Z,15.35
2023-04-09T21:53:12.856Z,16.23
2023-04-09T21:54:44.195Z,16.81
2023-04-09T21:56:19.556Z,16.55
2023-04-09T21:57:59.301Z,15.83
2023-04-09T21:59:44.328Z,14.88
2023-04-09T22:01:28.610Z,14.16
2023-04-09T22:03:03.709Z,14.41
2023-04-09T22:04:57.023Z,15.36
2023-04-09T22:06:32.544Z,16.31
2023-04-09T22:08:13.012Z,16.79
2023-04-09T22:09:58.182Z,16.33
2023-04-09T22:11:43.595Z,15.39
2023-04-09T22:13:19.575Z,14.50
2023-04-09T22:15:05.254Z,14.01
2023-04-09T22:16:50.247Z,14.53
2023-04-09T22:18:23.967Z,15.58
2023-04-09T22:20:00.046Z,16.33
2023-04-09T22:21:33.347Z,16.76
2023-04-09T22:23:26.609Z,16.31
2023-04-09T22:25:07.069Z,15.32
2023-04-09T22:26:55.523Z,14.47
2023-04-09T22:28:50.336Z,14.19
2023-04-09T22:30:23.725Z,14.97
2023-04-09T22:31:58.118Z,15.91
2023-04-09T22:33:31.735Z,16.57
2023-04-09T22:35:19.011Z,16.59
2023-04-09T22:36:59.926Z,15.81